Time;durP1;ratioP1;P1;durP2;ratioP2;P2;SDS_P1;SDS_P2;PMS_P1;PMS_P2;Temp;Humidity;BMP_temperature;BMP_pressure;BME280_temperature;BME280_humidity;BME280_pressure;Samples;Min_cycle;Max_cycle;Signal;HPM_P1;HPM_P2
2022/06/23 00:01:26;;;;;;;4.90;4.13;;;21.40;1.00;;;;;;5052114;28;20433;-58
2022/06/23 00:03:55;;;;;;;5.87;3.63;;;21.30;1.00;;;;;;5047182;28;20986;-58
2022/06/23 00:06:36;;;;;;;4.53;4.13;;;21.20;1.00;;;;;;5046784;28;20576;-59
2022/06/23 00:09:25;;;;;;;4.27;3.83;;;21.20;1.00;;;;;;5048223;28;20527;-59
2022/06/23 00:11:51;;;;;;;4.90;4.40;;;21.10;1.00;;;;;;5048922;28;20442;-58
2022/06/23 00:14:16;;;;;;;5.43;4.07;;;21.10;1.00;;;;;;5046866;28;20450;-59
2022/06/23 00:16:44;;;;;;;7.80;5.00;;;21.10;1.00;;;;;;5047184;28;20566;-58
2022/06/23 00:19:13;;;;;;;4.13;3.73;;;21.10;1.00;;;;;;5047035;28;20752;-59
2022/06/23 00:21:43;;;;;;;4.70;4.30;;;21.00;1.00;;;;;;5047308;28;20442;-59
2022/06/23 00:24:17;;;;;;;4.90;4.33;;;21.10;1.00;;;;;;5045813;28;20551;-59
2022/06/23 00:26:43;;;;;;;5.10;4.70;;;21.10;1.00;;;;;;5046363;28;20491;-59
2022/06/23 00:29:15;;;;;;;5.40;4.10;;;21.00;1.00;;;;;;5047192;28;20442;-59
2022/06/23 00:31:56;;;;;;;4.80;4.50;;;21.00;1.00;;;;;;5048599;28;20438;-60
2022/06/23 00:34:23;;;;;;;5.37;4.87;;;20.90;1.00;;;;;;5049306;28;20447;-59
2022/06/23 00:37:05;;;;;;;5.17;4.57;;;20.90;1.00;;;;;;5032713;28;20447;-60
2022/06/23 00:39:35;;;;;;;4.93;4.53;;;;;;;;;;5033300;28;20435;-59
2022/06/23 00:42:06;;;;;;;4.67;4.23;;;20.80;1.00;;;;;;5032802;28;20462;-59
2022/06/23 00:44:48;;;;;;;10.30;4.17;;;20.80;1.00;;;;;;5033426;28;20608;-60
2022/06/23 00:47:18;;;;;;;6.33;4.40;;;20.80;1.00;;;;;;5032207;28;20447;-59
2022/06/23 00:49:49;;;;;;;4.63;4.20;;;20.70;1.00;;;;;;5034372;28;20452;-59
2022/06/23 00:52:31;;;;;;;4.17;3.87;;;20.50;1.00;;;;;;5039864;28;20451;-58
2022/06/23 00:55:01;;;;;;;4.30;4.00;;;20.50;1.00;;;;;;5034757;28;20442;-62
2022/06/23 00:57:35;;;;;;;5.20;4.80;;;20.50;1.00;;;;;;5035500;28;20945;-59
2022/06/23 01:00:19;;;;;;;4.80;4.30;;;20.40;1.00;;;;;;5030880;28;20471;-59
2022/06/23 01:03:05;;;;;;;5.30;4.90;;;20.30;1.00;;;;;;5035127;28;20451;-59
2022/06/23 01:05:36;;;;;;;5.67;5.17;;;20.30;1.00;;;;;;5032107;28;20513;-58
2022/06/23 01:08:07;;;;;;;5.10;4.57;;;20.30;1.00;;;;;;5032980;28;20466;-59
2022/06/23 01:10:43;;;;;;;5.23;4.83;;;20.30;1.00;;;;;;5032263;28;20496;-59
2022/06/23 01:13:17;;;;;;;5.57;5.07;;;20.20;1.00;;;;;;5032100;28;20739;-59
2022/06/23 01:16:12;;;;;;;5.10;4.70;;;20.20;1.00;;;;;;5032864;28;20455;-58
2022/06/23 01:18:50;;;;;;;6.20;4.63;;;20.10;1.00;;;;;;5031555;28;20969;-59
2022/06/23 01:21:28;;;;;;;5.00;4.70;;;20.00;1.00;;;;;;5031674;28;20997;-58
2022/06/23 01:24:22;;;;;;;5.57;5.07;;;20.00;1.00;;;;;;5034756;28;20482;-58
2022/06/23 01:27:03;;;;;;;6.50;5.90;;;19.90;1.00;;;;;;5034529;28;20440;-60
2022/06/23 01:29:42;;;;;;;5.63;5.13;;;19.90;1.00;;;;;;5033166;28;20965;-59
2022/06/23 01:32:27;;;;;;;5.77;4.77;;;19.90;1.00;;;;;;5036366;28;20901;-59
2022/06/23 01:34:59;;;;;;;6.37;5.33;;;19.90;1.00;;;;;;5033768;28;20442;-58
2022/06/23 01:37:44;;;;;;;5.67;5.17;;;19.90;1.00;;;;;;5031959;28;20435;-60
2022/06/23 01:40:24;;;;;;;5.20;4.50;;;19.80;1.00;;;;;;5032467;28;20431;-58
2022/06/23 01:43:00;;;;;;;5.10;4.70;;;19.70;1.00;;;;;;5032778;28;20446;-58
2022/06/23 01:45:43;;;;;;;5.77;5.27;;;19.70;1.00;;;;;;5031550;28;20435;-59
2022/06/23 01:51:24;;;;;;;5.60;5.10;;;19.60;1.00;;;;;;5030234;28;20550;-58
2022/06/23 01:53:52;;;;;;;4.97;4.57;;;19.60;1.00;;;;;;5032567;28;20439;-59
2022/06/23 01:56:59;;;;;;;5.30;4.80;;;19.50;1.00;;;;;;5031232;28;20447;-58
2022/06/23 01:59:33;;;;;;;5.93;5.33;;;19.40;1.00;;;;;;5028892;28;20439;-58
2022/06/23 02:02:08;;;;;;;5.80;5.30;;;19.40;1.00;;;;;;5031210;28;20452;-59
2022/06/23 02:04:42;;;;;;;4.87;4.53;;;19.40;1.00;;;;;;5032801;28;20462;-59
2022/06/23 02:07:18;;;;;;;5.23;4.73;;;19.30;1.00;;;;;;5031011;28;20457;-59
2022/06/23 02:09:58;;;;;;;6.07;5.47;;;19.30;1.00;;;;;;5034490;28;20443;-59
2022/06/23 02:12:35;;;;;;;4.87;4.47;;;19.20;1.00;;;;;;5031883;28;20439;-59
2022/06/23 02:15:30;;;;;;;6.20;5.37;;;19.20;1.00;;;;;;5029610;28;20455;-59
2022/06/23 02:18:19;;;;;;;5.23;4.80;;;19.30;1.00;;;;;;5031084;28;20597;-58
2022/06/23 02:21:04;;;;;;;5.43;4.93;;;19.10;1.00;;;;;;5031485;28;20459;-59
2022/06/23 02:23:51;;;;;;;5.07;4.67;;;19.10;1.00;;;;;;5032981;28;20505;-59
2022/06/23 02:26:24;;;;;;;5.83;5.37;;;19.10;1.00;;;;;;5032204;28;20471;-60
2022/06/23 02:29:26;;;;;;;5.80;5.30;;;19.10;1.00;;;;;;5030713;28;20531;-59
2022/06/23 02:32:10;;;;;;;6.00;5.50;;;18.90;1.00;;;;;;5032356;28;20760;-59
2022/06/23 02:34:49;;;;;;;5.60;5.20;;;18.90;1.00;;;;;;5030518;28;20889;-59
2022/06/23 02:37:48;;;;;;;6.90;5.80;;;18.90;1.00;;;;;;5031274;28;21995;-59
2022/06/23 02:40:19;;;;;;;6.17;5.40;;;18.80;1.00;;;;;;5032331;28;20448;-59
2022/06/23 02:42:56;;;;;;;5.73;5.17;;;18.80;1.00;;;;;;5030728;28;20446;-59
2022/06/23 02:45:59;;;;;;;5.97;5.40;;;18.80;1.00;;;;;;5030309;28;20435;-59
2022/06/23 02:48:35;;;;;;;5.90;5.50;;;18.70;1.00;;;;;;5035144;28;20488;-61
2022/06/23 02:51:36;;;;;;;5.67;5.10;;;18.70;1.00;;;;;;5029760;28;20530;-60
2022/06/23 02:54:30;;;;;;;6.40;5.90;;;18.70;1.00;;;;;;5030153;28;20435;-59
2022/06/23 02:57:19;;;;;;;6.17;5.57;;;18.70;1.00;;;;;;5031721;28;20759;-60
2022/06/23 02:59:47;;;;;;;6.23;5.67;;;18.70;1.00;;;;;;5029887;28;20446;-59
2022/06/23 03:02:24;;;;;;;5.67;5.27;;;18.60;1.00;;;;;;5031184;28;20446;-58
2022/06/23 03:05:12;;;;;;;5.97;5.50;;;18.60;1.00;;;;;;5032911;28;20462;-58
2022/06/23 03:07:51;;;;;;;6.10;5.50;;;18.60;1.00;;;;;;5031948;28;20478;-59
2022/06/23 03:10:23;;;;;;;6.13;5.50;;;18.60;1.00;;;;;;5030171;28;20454;-59
2022/06/23 03:13:08;;;;;;;6.17;5.77;;;18.60;1.00;;;;;;5030748;28;20525;-58
2022/06/23 03:15:46;;;;;;;5.60;5.23;;;18.60;1.00;;;;;;5030508;28;20454;-59
2022/06/23 03:18:48;;;;;;;5.80;5.33;;;18.60;1.00;;;;;;5029876;28;20458;-59
2022/06/23 03:21:36;;;;;;;6.20;5.60;;;18.60;1.00;;;;;;5029833;28;20864;-59
2022/06/23 03:24:33;;;;;;;6.03;5.53;;;18.60;1.00;;;;;;5030752;28;21023;-58
2022/06/23 03:27:24;;;;;;;6.83;6.20;;;18.60;1.00;;;;;;5034123;28;20859;-59
2022/06/23 03:29:52;;;;;;;5.17;4.77;;;18.60;1.00;;;;;;5027653;28;20447;-60
2022/06/23 03:32:29;;;;;;;5.90;5.50;;;18.70;1.00;;;;;;5030479;28;20451;-58
2022/06/23 03:35:13;;;;;;;5.20;4.80;;;19.00;1.00;;;;;;5030182;28;20478;-58
2022/06/23 03:37:55;;;;;;;6.07;5.57;;;19.30;1.00;;;;;;5031218;28;20864;-59
2022/06/23 03:43:36;;;;;;;6.00;5.50;;;19.80;1.00;;;;;;5032676;28;20520;-59
2022/06/23 03:46:24;;;;;;;6.07;5.60;;;20.00;1.00;;;;;;5030419;28;20730;-58
2022/06/23 03:48:57;;;;;;;6.60;5.83;;;20.30;1.00;;;;;;5030381;28;20919;-59
2022/06/23 03:51:33;;;;;;;6.33;5.70;;;20.40;1.00;;;;;;5030129;28;20856;-58
2022/06/23 03:54:12;;;;;;;6.10;5.60;;;20.70;1.00;;;;;;5030193;28;21067;-60
2022/06/23 03:56:47;;;;;;;6.40;5.80;;;20.80;1.00;;;;;;5029672;28;20438;-59
2022/06/23 03:59:36;;;;;;;6.13;5.63;;;20.60;1.00;;;;;;5030936;28;20446;-58
2022/06/23 04:02:37;;;;;;;6.90;6.30;;;20.30;1.00;;;;;;5030504;28;20808;-60
2022/06/23 04:05:21;;;;;;;8.03;7.23;;;20.20;1.00;;;;;;5022281;28;21022;-58
2022/06/23 04:08:02;;;;;;;6.90;6.30;;;19.80;1.00;;;;;;5031122;28;20454;-60
2022/06/23 04:10:33;;;;;;;6.53;6.00;;;19.70;1.00;;;;;;5031242;28;20454;-60
2022/06/23 04:13:05;;;;;;;8.20;7.50;;;19.70;1.00;;;;;;5033602;28;20467;-59
2022/06/23 04:15:36;;;;;;;7.57;6.97;;;19.60;1.00;;;;;;5033118;28;20447;-59
2022/06/23 04:18:08;;;;;;;8.10;7.50;;;19.60;1.00;;;;;;5032803;28;20525;-59
2022/06/23 04:20:44;;;;;;;7.13;6.53;;;19.70;1.00;;;;;;5035362;28;20451;-58
2022/06/23 04:23:20;;;;;;;9.37;6.53;;;19.50;1.00;;;;;;5033241;28;20470;-59
2022/06/23 04:25:56;;;;;;;7.70;7.00;;;19.40;1.00;;;;;;5038110;28;20447;-59
2022/06/23 04:28:26;;;;;;;7.50;6.77;;;19.50;1.00;;;;;;5030565;28;20569;-59
2022/06/23 04:30:56;;;;;;;7.03;6.53;;;19.50;1.00;;;;;;5033141;28;20435;-59
2022/06/23 04:33:24;;;;;;;8.00;7.30;;;19.40;1.00;;;;;;5035377;28;20540;-59
2022/06/23 04:35:58;;;;;;;8.20;7.60;;;19.30;1.00;;;;;;5032770;28;20458;-59
2022/06/23 04:38:39;;;;;;;7.13;6.50;;;19.30;1.00;;;;;;5034587;28;20453;-60
2022/06/23 04:41:17;;;;;;;7.70;7.07;;;19.30;1.00;;;;;;5035873;28;20439;-59
2022/06/23 04:43:56;;;;;;;7.37;6.77;;;19.30;1.00;;;;;;5034229;28;20463;-58
2022/06/23 04:46:50;;;;;;;7.43;6.83;;;19.30;1.00;;;;;;5035538;28;21059;-59
2022/06/23 04:49:18;;;;;;;8.50;7.70;;;19.30;1.00;;;;;;5032607;28;20860;-59
2022/06/23 04:52:12;;;;;;;7.87;7.17;;;19.30;1.00;;;;;;5031864;28;20455;-59
2022/06/23 04:55:10;;;;;;;6.80;6.20;;;19.30;1.00;;;;;;5031672;28;20459;-59
2022/06/23 04:57:44;;;;;;;7.70;7.00;;;19.30;1.00;;;;;;5032245;28;20527;-60
2022/06/23 05:00:36;;;;;;;8.50;7.80;;;19.50;1.00;;;;;;5034653;28;20443;-59
2022/06/23 05:03:21;;;;;;;7.70;6.77;;;19.60;1.00;;;;;;5031715;28;20438;-58
2022/06/23 05:06:05;;;;;;;7.70;7.00;;;19.60;1.00;;;;;;5037942;28;20438;-60
2022/06/23 05:08:36;;;;;;;9.57;7.70;;;19.70;1.00;;;;;;5033680;28;20478;-58
2022/06/23 05:11:21;;;;;;;7.83;7.23;;;19.80;1.00;;;;;;5033250;28;20444;-58
2022/06/23 05:13:50;;;;;;;9.60;7.60;;;19.80;1.00;;;;;;5033668;28;20447;-59
2022/06/23 05:16:34;;;;;;;12.13;7.23;;;20.00;1.00;;;;;;5033001;28;20451;-59
2022/06/23 05:19:07;;;;;;;8.57;7.77;;;20.10;1.00;;;;;;5034953;28;20481;-59
2022/06/23 05:22:00;;;;;;;8.40;7.60;;;20.20;1.00;;;;;;5036934;28;20439;-58
2022/06/23 05:24:34;;;;;;;8.33;7.60;;;20.30;1.00;;;;;;5031089;28;20483;-59
2022/06/23 05:27:04;;;;;;;9.07;7.00;;;20.40;1.00;;;;;;5033084;28;20945;-58
2022/06/23 05:29:57;;;;;;;7.90;7.10;;;20.50;1.00;;;;;;5032579;28;20469;-59
2022/06/23 05:32:34;;;;;;;8.13;7.43;;;20.80;1.00;;;;;;5031557;28;20490;-59
2022/06/23 05:35:29;;;;;;;8.30;7.50;;;20.80;1.00;;;;;;5033151;28;20700;-59
2022/06/23 05:38:03;;;;;;;7.70;7.20;;;20.80;1.00;;;;;;5037179;28;20436;-58
2022/06/23 05:40:38;;;;;;;8.07;7.37;;;21.00;1.00;;;;;;5033459;28;20442;-59
2022/06/23 05:43:04;;;;;;;8.03;7.23;;;21.20;1.00;;;;;;5031931;28;20516;-59
2022/06/23 05:45:44;;;;;;;8.90;7.57;;;21.10;1.00;;;;;;5031879;28;20481;-59
2022/06/23 05:48:24;;;;;;;9.00;7.50;;;21.20;1.00;;;;;;5032617;28;20443;-59
2022/06/23 05:50:53;;;;;;;8.70;7.90;;;21.40;1.00;;;;;;5028592;28;20471;-59
2022/06/23 05:53:36;;;;;;;9.13;8.13;;;21.60;1.00;;;;;;5031823;28;20450;-58
2022/06/23 05:56:19;;;;;;;9.87;7.70;;;21.60;1.00;;;;;;5033096;28;20439;-59
2022/06/23 05:59:10;;;;;;;11.03;7.27;;;21.60;1.00;;;;;;5031700;28;20744;-58
2022/06/23 06:01:45;;;;;;;7.57;6.97;;;21.70;1.00;;;;;;5036988;28;20498;-58
2022/06/23 06:04:17;;;;;;;8.00;7.40;;;21.80;1.00;;;;;;5030782;28;20466;-59
2022/06/23 06:06:44;;;;;;;8.40;7.10;;;21.80;1.00;;;;;;5031011;28;20483;-59
2022/06/23 06:12:00;;;;;;;8.00;7.10;;;21.90;1.00;;;;;;5032072;28;20442;-59
2022/06/23 06:14:32;;;;;;;8.60;7.80;;;22.10;1.00;;;;;;5032116;28;20840;-59
2022/06/23 06:16:59;;;;;;;7.40;6.80;;;22.00;1.00;;;;;;5033036;28;20470;-59
2022/06/23 06:19:29;;;;;;;7.93;7.03;;;22.20;1.00;;;;;;5031787;28;20455;-59
2022/06/23 06:22:27;;;;;;;7.93;6.90;;;22.40;1.00;;;;;;5033161;28;21014;-59
2022/06/23 06:24:55;;;;;;;7.70;7.00;;;22.60;1.00;;;;;;5030218;28;20467;-59
2022/06/23 06:27:21;;;;;;;7.53;6.87;;;22.70;1.00;;;;;;5031048;28;20436;-59
2022/06/23 06:29:49;;;;;;;7.40;6.80;;;22.90;1.00;;;;;;5030397;28;20478;-59
2022/06/23 06:32:35;;;;;;;7.30;6.60;;;23.00;1.00;;;;;;5037138;28;20447;-59
2022/06/23 06:35:07;;;;;;;7.40;6.70;;;23.10;1.00;;;;;;5030735;28;20447;-59
2022/06/23 06:37:37;;;;;;;7.30;6.70;;;23.20;1.00;;;;;;5036481;28;20447;-60
2022/06/23 06:40:04;;;;;;;8.50;6.70;;;23.30;1.00;;;;;;5037178;28;20478;-60
2022/06/23 06:42:37;;;;;;;8.20;7.47;;;23.20;1.00;;;;;;5030396;28;20427;-58
2022/06/23 06:45:08;;;;;;;11.80;7.27;;;23.30;1.00;;;;;;5033185;28;20546;-59
2022/06/23 06:47:36;;;;;;;6.80;6.20;;;23.40;1.00;;;;;;5033116;28;20435;-59
2022/06/23 06:50:31;;;;;;;10.17;6.37;;;23.40;1.00;;;;;;5032874;28;20447;-59
2022/06/23 06:53:09;;;;;;;6.80;6.10;;;23.70;1.00;;;;;;5037975;28;20554;-59
2022/06/23 06:55:57;;;;;;;9.10;6.27;;;23.70;1.00;;;;;;5033188;28;20451;-59
2022/06/23 06:58:47;;;;;;;6.67;6.00;;;23.70;1.00;;;;;;5033173;28;20537;-59
2022/06/23 07:01:24;;;;;;;7.47;6.70;;;23.90;1.00;;;;;;5035390;28;20428;-59
2022/06/23 07:03:53;;;;;;;7.00;6.00;;;24.50;1.00;;;;;;5031715;28;20488;-59
2022/06/23 07:06:41;;;;;;;7.73;6.20;;;24.90;1.00;;;;;;5034448;28;21071;-59
2022/06/23 07:09:28;;;;;;;7.17;6.50;;;25.00;1.00;;;;;;5040311;28;20431;-60
2022/06/23 07:12:05;;;;;;;12.40;6.77;;;25.00;1.00;;;;;;5029797;28;20835;-60
2022/06/23 07:15:02;;;;;;;7.00;6.40;;;25.00;1.00;;;;;;5033218;28;20844;-59
2022/06/23 07:17:40;;;;;;;12.63;6.73;;;25.20;1.00;;;;;;5021068;28;20848;-61
2022/06/23 07:20:24;;;;;;;6.43;5.93;;;25.30;1.00;;;;;;5032206;28;20774;-60
2022/06/23 07:22:57;;;;;;;6.23;5.73;;;25.40;1.00;;;;;;5035570;28;20447;-59
2022/06/23 07:25:29;;;;;;;6.00;5.40;;;25.50;1.00;;;;;;5032762;28;20999;-59
2022/06/23 07:28:13;;;;;;;8.33;6.40;;;25.50;1.00;;;;;;5033185;28;20498;-61
2022/06/23 07:30:55;;;;;;;8.40;5.87;;;25.20;1.00;;;;;;5029725;28;20439;-60
2022/06/23 07:33:34;;;;;;;6.10;5.50;;;25.30;1.00;;;;;;5031905;28;20507;-60
2022/06/23 07:36:38;;;;;;;6.23;5.63;;;25.60;1.00;;;;;;5036133;28;20563;-60
2022/06/23 07:39:12;;;;;;;9.20;6.17;;;26.20;1.00;;;;;;5017884;28;20715;-59
2022/06/23 07:41:42;;;;;;;8.50;6.10;;;26.10;1.00;;;;;;5033618;28;20497;-58
2022/06/23 07:44:20;;;;;;;6.53;5.43;;;26.50;1.00;;;;;;5031795;28;20459;-59
2022/06/23 07:46:46;;;;;;;6.93;5.67;;;26.50;1.00;;;;;;5037955;28;20439;-60
2022/06/23 07:49:12;;;;;;;7.10;6.27;;;26.50;1.00;;;;;;5036215;28;20505;-59
2022/06/23 07:51:38;;;;;;;9.60;6.63;;;;;;;;;;5035916;28;20177;-59
2022/06/23 07:54:06;;;;;;;6.70;6.10;;;26.90;1.00;;;;;;5035571;28;20279;-58
2022/06/23 07:56:36;;;;;;;5.97;5.47;;;27.20;1.00;;;;;;5037311;28;20454;-58
2022/06/23 07:59:11;;;;;;;6.20;5.43;;;27.30;1.00;;;;;;5035635;28;20785;-58
2022/06/23 08:01:41;;;;;;;6.07;5.33;;;27.50;1.00;;;;;;5034987;28;20438;-60
2022/06/23 08:04:42;;;;;;;10.17;5.67;;;27.60;1.00;;;;;;5034361;28;20467;-60
2022/06/23 08:07:10;;;;;;;6.03;5.30;;;27.90;1.00;;;;;;5034629;28;20445;-60
2022/06/23 08:09:55;;;;;;;10.90;9.83;;;27.90;1.00;;;;;;5033149;28;20443;-59
2022/06/23 08:18:51;;;;;;;8.13;5.50;;;28.10;1.00;;;;;;5036588;28;20485;-58
2022/06/23 08:21:26;;;;;;;7.00;4.93;;;28.30;1.00;;;;;;5024825;28;20979;-59
2022/06/23 08:23:55;;;;;;;8.23;5.53;;;28.30;1.00;;;;;;5036316;28;20485;-59
2022/06/23 08:26:22;;;;;;;5.83;5.33;;;28.40;1.00;;;;;;5034271;28;20442;-58
2022/06/23 08:28:49;;;;;;;5.83;5.27;;;28.90;1.00;;;;;;5034656;28;20963;-59
2022/06/23 08:31:17;;;;;;;11.60;6.00;;;28.90;1.00;;;;;;5035162;28;20454;-58
2022/06/23 08:33:43;;;;;;;6.33;4.90;;;28.90;1.00;;;;;;5034921;28;20442;-59
2022/06/23 08:36:15;;;;;;;6.20;5.60;;;28.80;1.00;;;;;;5033102;28;20746;-60
2022/06/23 08:38:53;;;;;;;5.90;5.40;;;28.90;1.00;;;;;;5033894;28;20661;-60
2022/06/23 08:41:41;;;;;;;8.70;5.10;;;29.00;1.00;;;;;;5032774;28;20438;-59
2022/06/23 08:44:10;;;;;;;8.10;5.30;;;28.90;1.00;;;;;;5037404;28;20474;-59
2022/06/23 08:46:46;;;;;;;5.77;4.60;;;29.00;1.00;;;;;;5034611;28;20431;-59
2022/06/23 08:49:12;;;;;;;5.93;4.73;;;29.30;1.00;;;;;;5032501;28;20443;-58
2022/06/23 08:51:44;;;;;;;8.00;5.10;;;29.30;1.00;;;;;;5040745;28;20778;-59
2022/06/23 08:54:24;;;;;;;5.60;4.80;;;29.40;1.00;;;;;;5034468;28;20185;-58
2022/06/23 08:57:00;;;;;;;5.23;4.80;;;29.40;1.00;;;;;;5033174;28;20777;-61
2022/06/23 08:59:26;;;;;;;6.40;5.47;;;;;;;;;;5033548;28;20580;-60
2022/06/23 09:02:03;;;;;;;6.43;5.13;;;29.70;1.00;;;;;;5032978;28;20957;-61
2022/06/23 09:04:53;;;;;;;6.10;5.50;;;29.90;1.00;;;;;;5033254;28;20471;-59
2022/06/23 09:07:28;;;;;;;6.13;4.83;;;30.00;1.00;;;;;;5031017;28;20518;-59
2022/06/23 09:10:02;;;;;;;4.43;4.13;;;29.90;1.00;;;;;;5030646;28;20445;-59
2022/06/23 09:12:46;;;;;;;5.50;4.77;;;29.80;1.00;;;;;;5036365;28;20451;-59
2022/06/23 09:15:36;;;;;;;6.43;5.77;;;29.80;1.00;;;;;;5033975;28;20454;-59
2022/06/23 09:18:15;;;;;;;6.90;4.63;;;30.00;1.00;;;;;;5031785;28;20443;-59
2022/06/23 09:21:25;;;;;;;5.33;4.37;;;30.30;1.00;;;;;;5038953;28;20453;-58
2022/06/23 09:24:12;;;;;;;4.63;4.27;;;30.50;1.00;;;;;;5031644;28;20543;-60
2022/06/23 09:27:00;;;;;;;5.90;4.53;;;30.60;1.00;;;;;;5031999;28;20471;-58
2022/06/23 09:29:41;;;;;;;4.77;4.37;;;30.60;1.00;;;;;;5033617;28;20530;-59
2022/06/23 09:32:16;;;;;;;4.33;3.90;;;30.50;1.00;;;;;;5031981;28;20435;-59
2022/06/23 09:34:57;;;;;;;4.87;4.43;;;30.50;1.00;;;;;;5032155;28;20451;-58
2022/06/23 09:37:41;;;;;;;4.37;4.03;;;30.60;1.00;;;;;;5032637;28;20975;-59
2022/06/23 09:40:33;;;;;;;4.23;3.83;;;30.60;1.00;;;;;;5031801;28;20527;-59
2022/06/23 09:43:24;;;;;;;4.07;3.70;;;30.40;1.00;;;;;;5031997;28;20505;-59
2022/06/23 09:46:09;;;;;;;7.10;3.77;;;30.20;1.00;;;;;;5031723;28;20530;-60
2022/06/23 09:49:10;;;;;;;5.20;3.50;;;30.30;1.00;;;;;;5039090;28;20435;-59
2022/06/23 09:51:54;;;;;;;3.90;3.60;;;30.40;1.00;;;;;;5032069;28;20489;-59
2022/06/23 09:54:43;;;;;;;4.00;3.70;;;30.70;1.00;;;;;;5032638;28;20932;-59
2022/06/23 09:57:36;;;;;;;4.07;3.67;;;30.70;1.00;;;;;;5031130;28;20447;-58
2022/06/23 10:00:19;;;;;;;5.10;3.57;;;31.00;1.00;;;;;;5031301;28;20971;-59
2022/06/23 10:03:10;;;;;;;6.37;3.60;;;31.30;1.00;;;;;;5031730;28;20435;-58
2022/06/23 10:06:05;;;;;;;3.73;3.43;;;31.60;1.00;;;;;;5031145;28;20956;-59
2022/06/23 10:09:03;;;;;;;3.90;3.40;;;31.70;1.00;;;;;;5026666;28;20657;-59
2022/06/23 10:11:44;;;;;;;3.70;3.13;;;31.60;1.00;;;;;;5031905;28;20506;-60
2022/06/23 10:14:45;;;;;;;4.20;3.87;;;31.50;1.00;;;;;;5031605;28;20447;-61
2022/06/23 10:17:45;;;;;;;3.10;2.90;;;31.50;1.00;;;;;;5031871;28;20501;-60
2022/06/23 10:20:17;;;;;;;3.80;3.40;;;31.20;1.00;;;;;;5031446;28;20447;-59
2022/06/23 10:22:57;;;;;;;3.20;2.93;;;31.10;1.00;;;;;;5030624;28;20574;-59
2022/06/23 10:25:37;;;;;;;3.30;3.10;;;31.20;1.00;;;;;;5031012;28;20841;-59
2022/06/23 10:28:03;;;;;;;3.60;3.30;;;31.30;1.00;;;;;;5030984;28;20414;-58
2022/06/23 10:31:06;;;;;;;3.30;3.10;;;31.40;1.00;;;;;;5031606;28;20512;-59
2022/06/23 10:33:56;;;;;;;6.33;2.80;;;31.70;1.00;;;;;;5021078;28;20192;-59
2022/06/23 10:36:51;;;;;;;2.83;2.53;;;31.70;1.00;;;;;;5032364;28;20829;-59
2022/06/23 10:39:43;;;;;;;3.43;3.23;;;31.70;1.00;;;;;;5029806;28;20528;-59
2022/06/23 10:42:27;;;;;;;3.17;2.83;;;31.30;1.00;;;;;;5030874;28;20494;-59
2022/06/23 10:45:34;;;;;;;4.60;2.90;;;31.70;1.00;;;;;;5030369;28;20459;-61
2022/06/23 10:48:02;;;;;;;4.30;3.33;;;31.60;1.00;;;;;;5030614;28;20498;-60
2022/06/23 10:50:43;;;;;;;4.63;2.70;;;31.50;1.00;;;;;;5030458;28;20439;-60
2022/06/23 10:53:30;;;;;;;6.73;3.00;;;31.40;1.00;;;;;;5030870;28;20435;-60
2022/06/23 10:56:17;;;;;;;3.50;3.00;;;31.70;1.00;;;;;;5029869;28;20807;-59
2022/06/23 10:59:16;;;;;;;3.13;2.87;;;31.80;1.00;;;;;;5028102;28;20838;-59
2022/06/23 11:01:55;;;;;;;2.93;2.73;;;31.70;1.00;;;;;;5031088;28;20443;-59
2022/06/23 11:04:39;;;;;;;3.30;3.00;;;31.50;1.00;;;;;;5030829;28;20998;-60
2022/06/23 11:07:26;;;;;;;2.87;2.67;;;31.40;1.00;;;;;;5030683;28;21295;-59
2022/06/23 11:10:17;;;;;;;3.87;3.53;;;31.90;1.00;;;;;;5034109;28;20430;-60
2022/06/23 11:12:57;;;;;;;5.37;3.80;;;31.90;1.00;;;;;;5042981;28;20442;-57
2022/06/23 11:15:40;;;;;;;3.37;3.07;;;31.70;1.00;;;;;;5030204;28;20438;-59
2022/06/23 11:18:45;;;;;;;4.17;2.43;;;31.70;1.00;;;;;;5029349;28;20978;-60
2022/06/23 11:21:43;;;;;;;3.20;2.97;;;31.80;1.00;;;;;;5030801;28;20964;-59
2022/06/23 11:24:40;;;;;;;3.00;2.57;;;31.80;1.00;;;;;;5029029;28;20502;-59
2022/06/23 11:27:20;;;;;;;2.90;2.50;;;31.70;1.00;;;;;;5029750;28;20947;-59
2022/06/23 11:30:04;;;;;;;2.87;2.43;;;31.90;1.00;;;;;;5030503;28;20786;-60
2022/06/23 11:32:40;;;;;;;3.47;2.90;;;31.80;1.00;;;;;;5030401;28;20516;-61
2022/06/23 11:35:51;;;;;;;4.50;3.03;;;31.90;1.00;;;;;;5028221;28;20447;-60
2022/06/23 11:38:26;;;;;;;4.30;3.33;;;31.60;1.00;;;;;;5030731;28;20965;-59
2022/06/23 11:41:00;;;;;;;3.53;2.97;;;31.80;1.00;;;;;;5031488;28;20991;-58
2022/06/23 11:43:55;;;;;;;3.07;2.87;;;31.80;1.00;;;;;;5029721;28;20430;-60
2022/06/23 11:46:29;;;;;;;3.10;2.80;;;31.80;1.00;;;;;;5029045;28;20451;-59
2022/06/23 11:49:07;;;;;;;4.47;2.80;;;31.60;1.00;;;;;;5029533;28;20432;-60
2022/06/23 11:51:50;;;;;;;4.70;2.90;;;31.60;1.00;;;;;;5030926;28;20959;-60
2022/06/23 11:54:48;;;;;;;3.20;3.00;;;31.60;1.00;;;;;;5029236;28;20518;-59
2022/06/23 11:57:32;;;;;;;2.70;2.50;;;31.70;1.00;;;;;;5029648;28;20444;-59
2022/06/23 12:00:08;;;;;;;2.97;2.77;;;31.80;1.00;;;;;;5031076;28;20544;-59
2022/06/23 12:02:49;;;;;;;4.40;2.80;;;32.10;1.00;;;;;;5029882;28;20477;-59
2022/06/23 12:05:21;;;;;;;2.97;2.77;;;;;;;;;;5036183;28;21079;-58
2022/06/23 12:08:28;;;;;;;3.20;2.87;;;32.40;1.00;;;;;;5029458;28;20474;-58
2022/06/23 12:10:54;;;;;;;2.63;2.43;;;32.40;1.00;;;;;;5030293;28;20988;-59
2022/06/23 12:13:22;;;;;;;4.63;2.60;;;32.40;1.00;;;;;;5031817;28;20450;-59
2022/06/23 12:15:50;;;;;;;2.90;2.40;;;32.30;1.00;;;;;;5029369;28;20439;-59
2022/06/23 12:18:21;;;;;;;2.70;2.50;;;32.40;1.00;;;;;;5029683;28;20921;-58
2022/06/23 12:21:17;;;;;;;2.70;2.47;;;32.40;1.00;;;;;;5029240;28;20451;-58
2022/06/23 12:23:48;;;;;;;2.67;2.37;;;32.10;1.00;;;;;;5034339;28;20957;-59
2022/06/23 12:26:28;;;;;;;2.30;2.10;;;32.10;1.00;;;;;;5031080;28;20836;-59
2022/06/23 12:28:59;;;;;;;2.60;2.40;;;32.00;1.00;;;;;;5035838;28;20825;-59
2022/06/23 12:31:46;;;;;;;3.23;2.50;;;32.10;1.00;;;;;;5030909;28;20447;-59
2022/06/23 12:34:17;;;;;;;4.93;2.20;;;32.40;1.00;;;;;;5034535;28;20966;-58
2022/06/23 12:37:07;;;;;;;3.57;2.03;;;31.90;1.00;;;;;;5033049;28;20435;-60
2022/06/23 12:39:41;;;;;;;2.80;1.90;;;31.90;1.00;;;;;;5032426;28;20445;-63
2022/06/23 12:42:30;;;;;;;3.00;2.13;;;32.00;1.00;;;;;;5033789;28;20439;-58
2022/06/23 12:45:14;;;;;;;2.33;2.13;;;32.00;1.00;;;;;;5029794;28;20471;-58
2022/06/23 12:47:53;;;;;;;1.83;1.73;;;31.70;1.00;;;;;;5031337;28;20439;-59
2022/06/23 12:50:28;;;;;;;2.30;2.10;;;31.70;1.00;;;;;;5032684;28;20436;-60
2022/06/23 12:52:59;;;;;;;5.43;2.53;;;31.70;1.00;;;;;;5032952;28;20494;-60
2022/06/23 12:55:37;;;;;;;2.27;2.07;;;31.90;1.00;;;;;;5035222;28;20443;-58
2022/06/23 12:58:23;;;;;;;2.77;2.20;;;31.90;1.00;;;;;;5032076;28;20439;-59
2022/06/23 13:01:15;;;;;;;2.90;2.13;;;31.70;1.00;;;;;;5033574;28;20451;-58
2022/06/23 13:03:52;;;;;;;3.00;1.90;;;31.80;1.00;;;;;;5030710;28;20475;-59
2022/06/23 13:06:23;;;;;;;5.07;2.37;;;31.90;1.00;;;;;;5032020;28;20448;-59
2022/06/23 13:09:11;;;;;;;2.20;2.00;;;32.20;1.00;;;;;;5033271;28;20488;-59
2022/06/23 13:11:40;;;;;;;2.07;1.70;;;32.40;1.00;;;;;;5034067;28;20435;-58
2022/06/23 13:14:34;;;;;;;2.40;2.10;;;32.40;1.00;;;;;;5033159;28;20805;-58
2022/06/23 13:17:29;;;;;;;3.37;2.00;;;32.30;1.00;;;;;;5022258;28;20486;-59
2022/06/23 13:20:32;;;;;;;2.10;1.97;;;32.30;1.00;;;;;;5033318;28;20796;-59
2022/06/23 13:23:21;;;;;;;1.93;1.70;;;32.20;1.00;;;;;;5031023;28;20498;-59
2022/06/23 13:25:53;;;;;;;1.83;1.73;;;32.10;1.00;;;;;;5031463;28;20453;-60
2022/06/23 13:28:35;;;;;;;2.10;1.50;;;32.20;1.00;;;;;;5032748;28;20531;-59
2022/06/23 13:31:41;;;;;;;3.23;2.40;;;31.90;1.00;;;;;;5032946;28;20451;-60
2022/06/23 13:34:18;;;;;;;1.90;1.80;;;32.20;1.00;;;;;;5031924;28;20450;-59
2022/06/23 13:37:05;;;;;;;2.40;2.20;;;32.40;1.00;;;;;;5034066;28;20474;-60
2022/06/23 13:39:45;;;;;;;2.43;2.33;;;32.20;1.00;;;;;;5032800;28;20936;-59
2022/06/23 13:42:23;;;;;;;3.47;3.10;;;32.20;1.00;;;;;;5032064;28;20461;-59
2022/06/23 13:45:22;;;;;;;2.70;2.50;;;32.20;1.00;;;;;;5033593;28;20470;-60
2022/06/23 13:47:57;;;;;;;3.23;2.93;;;32.20;1.00;;;;;;5035594;28;20439;-59
2022/06/23 13:50:28;;;;;;;3.70;2.40;;;32.00;1.00;;;;;;5032598;28;20495;-59
2022/06/23 13:53:01;;;;;;;2.63;2.43;;;31.90;1.00;;;;;;5034697;28;20435;-58
2022/06/23 13:55:51;;;;;;;3.30;2.30;;;31.90;1.00;;;;;;5031909;28;20443;-58
2022/06/23 13:58:25;;;;;;;2.47;2.27;;;32.20;1.00;;;;;;5031835;28;20540;-58
2022/06/23 14:01:17;;;;;;;2.33;2.13;;;32.20;1.00;;;;;;5033650;28;20905;-59
2022/06/23 14:03:48;;;;;;;3.60;2.67;;;32.40;1.00;;;;;;5031969;28;20550;-59
2022/06/23 14:06:20;;;;;;;3.67;2.43;;;32.20;1.00;;;;;;5032415;28;20466;-60
2022/06/23 14:08:54;;;;;;;2.33;2.10;;;32.40;1.00;;;;;;5031701;28;20450;-59
2022/06/23 14:11:45;;;;;;;2.47;2.27;;;32.70;1.00;;;;;;5030979;28;20469;-59
2022/06/23 14:14:35;;;;;;;3.10;2.47;;;33.40;1.00;;;;;;5031694;28;21141;-59
2022/06/23 14:17:23;;;;;;;3.27;1.90;;;35.50;1.00;;;;;;5031470;28;20443;-58
2022/06/23 14:19:57;;;;;;;2.00;1.80;;;37.90;1.00;;;;;;5031312;28;20454;-60
2022/06/23 14:23:04;;;;;;;3.27;2.47;;;39.30;1.00;;;;;;5030510;28;20434;-60